Meteo Giornale » Osservazioni meteo Italia » Cervia

ore: 15:55 - Osservazioni Meteo Cervia
Lat. 44° 13' N Lon. 12° 18' E Alt. 6 metri s.l.m.

sereno Europe/Rome

20 °C

Sereno

Temp. 24 Ore

5 °C

21 °C

Est

13 Km/h

Dew point 9 °C

Umidità 49 %

Visibilità  10 Km

Il sole sorge alle ore 06:04

Il sole tramonta alle ore 18:29

Data e Ora Cielo e Fenomeni T °C DP °C Um. % Pres. hPa Vis. km Vento km/h
Oggi h: 15:55 sereno Sereno 20 9 49 1018 10 E 13
Oggi h: 14:55 sereno Sereno 21 8 43 1019 10 E/NE 13
Oggi h: 13:55 sereno Sereno 21 5 35 1019 10 N/NO 7.4
Oggi h: 12:55 sereno Sereno 21 6 37 1021 10 NO 11.1
Oggi h: 11:55 sereno Sereno 20 7 42 1021 10 O/NO 13
Oggi h: 10:55 sereno Sereno 18 7 48 1022 10 O/NO 18.5
Oggi h: 09:55 sereno Sereno 17 7 51 1022 10 O/NO 18.5
Oggi h: 08:55 sereno Sereno 14 8 67 1023 10 O 11.1
Oggi h: 07:55 sereno Sereno 10 6 76 1022 10 O/SO 11.1
Oggi h: 06:55 sereno Sereno 5 5 100 1022 10 O 9.3
Oggi h: 05:55 sereno Sereno 5 4 93 1023 10 O/NO 9.3
Oggi h: 04:55 sereno Sereno 5 4 93 1022 10 O/NO 9.3
Oggi h: 03:55 sereno Sereno 8 5 81 1022 10 O/SO 7.4
Oggi h: 01:55 sereno Sereno 7 5 87 1023 10 O/NO 7.4
Oggi h: 00:55 sereno Sereno 7 5 87 1023 10 N 5.5
Ieri h: 23:55 sereno Sereno 7 4 81 1023 10 N 3.7
Ieri h: 22:55 sereno Sereno 8 4 75 1023 10 N 1.8
Ieri h: 21:55 sereno Sereno 10 5 71 1023 10 SO 11.1
Ieri h: 20:55 sereno Sereno 10 4 66 1023 10 N 5.5
Ieri h: 19:55 sereno Sereno 11 2 53 1023 10 N 3.7
Ieri h: 18:55 sereno Sereno 14 1 41 1023 10 N 3.7
Ieri h: 17:55 sereno Sereno 16 1 36 1023 10 E/SE 7.4
Ieri h: 16:55 sereno Sereno 18 1 31 1023 10 E 9.3